createdAt,value
2023-03-23T15:58:38.785Z,98162.20
2023-03-23T16:01:57.078Z,98164.60
2023-03-23T16:05:15.525Z,98169.00
2023-03-23T16:08:23.524Z,98171.20
2023-03-23T16:11:40.799Z,98174.80
2023-03-23T16:14:56.896Z,98180.40
2023-03-23T16:18:05.680Z,98183.00
2023-03-23T16:21:14.263Z,98186.80
2023-03-23T16:24:22.224Z,98185.00
2023-03-23T16:27:38.427Z,98181.40
2023-03-23T16:30:48.481Z,98180.20
2023-03-23T16:33:56.414Z,98186.80
2023-03-23T16:37:04.677Z,98189.80
2023-03-23T16:40:27.209Z,98189.80
2023-03-23T16:43:43.335Z,98194.40
2023-03-23T16:46:51.351Z,98193.40
2023-03-23T16:50:11.827Z,98189.00
2023-03-23T16:53:28.297Z,98186.40
2023-03-23T16:56:46.976Z,98185.20
2023-03-23T16:59:58.651Z,98192.80
2023-03-23T17:03:06.830Z,98199.80
2023-03-23T17:06:15.965Z,98200.60
2023-03-23T17:09:32.237Z,98204.80
2023-03-23T17:12:40.598Z,98203.20
2023-03-23T17:15:53.936Z,98204.40
2023-03-23T17:19:01.789Z,98201.00
2023-03-23T17:22:09.935Z,98208.20
2023-03-23T17:25:26.074Z,98208.20
2023-03-23T17:28:33.841Z,98216.60
2023-03-23T17:31:43.673Z,98221.00
2023-03-23T17:35:01.663Z,98224.40
2023-03-23T17:38:17.726Z,98222.60
2023-03-23T17:41:25.685Z,98224.60
2023-03-23T17:44:33.648Z,98229.20
2023-03-23T17:47:52.044Z,98224.20
2023-03-23T17:51:10.919Z,98224.40
2023-03-23T17:54:29.669Z,98225.20
2023-03-23T17:57:46.093Z,98227.20
2023-03-23T18:00:54.006Z,98238.40
2023-03-23T18:04:03.705Z,98244.60
2023-03-23T18:07:12.612Z,98244.20
2023-03-23T18:10:20.915Z,98249.00
2023-03-23T18:13:31.810Z,98249.40
2023-03-23T18:16:42.167Z,98251.60
2023-03-23T18:19:50.259Z,98246.80
2023-03-23T18:23:06.262Z,98254.60
2023-03-23T18:26:17.004Z,98256.00
2023-03-23T18:29:33.090Z,98257.00
2023-03-23T18:32:43.273Z,98257.60
2023-03-23T18:35:57.615Z,98261.00
2023-03-23T18:39:22.249Z,98257.60
2023-03-23T18:42:30.697Z,98256.20
2023-03-23T18:45:38.957Z,98269.00
2023-03-23T18:48:47.052Z,98261.80
2023-03-23T18:51:55.267Z,98255.20
2023-03-23T18:55:04.979Z,98255.80
2023-03-23T18:58:13.780Z,98250.20
2023-03-23T19:01:22.188Z,98250.60
2023-03-23T19:04:32.135Z,98246.60
2023-03-23T19:07:39.839Z,98245.20
2023-03-23T19:11:02.386Z,98248.00
2023-03-23T19:14:10.629Z,98253.00
2023-03-23T19:17:27.067Z,98255.40
2023-03-23T19:21:06.042Z,98258.40
2023-03-23T19:24:03.501Z,98256.60
2023-03-23T19:27:12.381Z,98257.60
2023-03-23T19:30:21.201Z,98259.60
2023-03-23T19:33:29.426Z,98256.80
2023-03-23T19:36:39.442Z,98261.40
2023-03-23T19:39:48.015Z,98264.20
2023-03-23T19:42:57.453Z,98272.20
2023-03-23T19:46:06.051Z,98276.80
2023-03-23T19:49:14.762Z,98276.80
2023-03-23T19:52:26.056Z,98268.20
2023-03-23T19:55:36.866Z,98268.00
2023-03-23T19:58:45.747Z,98268.00
2023-03-23T20:01:54.760Z,98270.00
2023-03-23T20:05:02.884Z,98271.80
2023-03-23T20:08:17.662Z,98270.00
2023-03-23T20:11:25.813Z,98269.60
2023-03-23T20:14:33.325Z,98273.80
2023-03-23T20:17:42.132Z,98273.00
2023-03-23T20:21:06.751Z,98274.40
2023-03-23T20:24:23.116Z,98271.40
2023-03-23T20:27:31.086Z,98276.00
2023-03-23T20:30:40.040Z,98268.60
2023-03-23T20:34:01.126Z,98268.60
2023-03-23T20:37:16.158Z,98269.00
2023-03-23T20:40:24.742Z,98270.80
2023-03-23T20:43:33.640Z,98270.40
2023-03-23T20:46:41.525Z,98268.20
2023-03-23T20:49:58.999Z,98271.40
2023-03-23T20:53:07.184Z,98268.00
2023-03-23T20:56:24.317Z,98264.60
2023-03-23T20:59:40.641Z,98273.40
2023-03-23T21:02:49.917Z,98266.00
2023-03-23T21:05:57.328Z,98260.80
2023-03-23T21:09:06.924Z,98270.40
2023-03-23T21:12:23.615Z,98271.20
2023-03-23T21:15:32.355Z,98278.20
2023-03-23T21:18:41.037Z,98279.80
2023-03-23T21:21:57.338Z,98275.80
2023-03-23T21:25:06.399Z,98274.20
2023-03-23T21:28:15.574Z,98269.40
2023-03-23T21:31:25.568Z,98264.80
2023-03-23T21:34:32.485Z,98264.00
2023-03-23T21:37:41.406Z,98263.40
2023-03-23T21:40:49.576Z,98261.60
2023-03-23T21:43:57.717Z,98262.60
2023-03-23T21:47:14.766Z,98267.20
2023-03-23T21:50:24.344Z,98265.80
2023-03-23T21:53:34.204Z,98269.20
2023-03-23T21:56:41.325Z,98273.60
2023-03-23T21:59:57.588Z,98271.60
2023-03-23T22:03:06.111Z,98270.40
2023-03-23T22:06:19.235Z,98275.40
2023-03-23T22:09:28.813Z,98277.60
2023-03-23T22:12:46.010Z,98272.80
2023-03-23T22:16:04.206Z,98273.20
2023-03-23T22:19:21.289Z,98263.60
2023-03-23T22:22:29.391Z,98272.40
2023-03-23T22:25:45.943Z,98273.20
2023-03-23T22:28:54.916Z,98267.60
2023-03-23T22:32:03.089Z,98267.80
2023-03-23T22:35:19.449Z,98262.40
2023-03-23T22:38:27.803Z,98267.60
2023-03-23T22:41:45.032Z,98267.20
2023-03-23T22:44:53.316Z,98267.40
2023-03-23T22:48:10.093Z,98271.20
2023-03-23T22:51:28.407Z,98264.00
2023-03-23T22:54:36.497Z,98261.60
2023-03-23T22:57:52.663Z,98264.40
2023-03-23T23:01:16.346Z,98265.20
2023-03-23T23:04:32.571Z,98260.60
2023-03-23T23:07:41.433Z,98255.40
2023-03-23T23:11:00.626Z,98251.20
2023-03-23T23:14:08.785Z,98252.20
2023-03-23T23:17:18.853Z,98250.40
2023-03-23T23:20:27.151Z,98251.00
2023-03-23T23:23:36.186Z,98251.60
2023-03-23T23:26:45.232Z,98250.20
2023-03-23T23:30:02.987Z,98249.00
2023-03-23T23:33:11.370Z,98246.60
2023-03-23T23:36:21.368Z,98244.60
2023-03-23T23:39:30.552Z,98241.80
2023-03-23T23:42:38.869Z,98242.00
2023-03-23T23:45:55.135Z,98234.80
2023-03-23T23:49:12.110Z,98240.00
2023-03-23T23:52:28.685Z,98232.40
2023-03-23T23:55:36.852Z,98236.20
2023-03-23T23:58:45.251Z,98236.60
